Startpagina
METAR-TAF:

METAR-TAF

Vliegvelden :

Flughafen Mönchengladbach

Mönchengladbach, Duitsland

breedte: 51-13-49N, lengte: 006-30-16E, hoogte: 38 m

Actueel weer

Dit bericht is 9 uur en het 31 minuten geleden gemaakt, om 18:20 UTC
Wind 3 kt uit het westen
Temperatuur 21°C
Vochtigheid 78%
Druk 1020 hPa
Zicht 10 km of meer
geen wolken onder 1500 m en geen cumulonimbus

METAR: EDLN 201820Z 27003KT CAVOK 21/17 Q1020

Tijdstip: 05:51 (03:51 UTC)

Verwachting

Dit bericht is 10 uur en het 51 minuten geleden gemaakt, om 17:00 UTC
Verwachting geldig van 20 om 18 UTC tot 21 om 03 UTC
Wind 6 kt uit het noordwesten
Zicht 10 km of meer
Weinig wolken op 4500 ft

TAF: EDLN 201700Z 2018/2103 31006KT 9999 FEW045

Waarnemingen en weersverwachtingen van meer dan 4000 vliegvelden (METAR en TAF).

De beschikbare stations zijn de gele en rode punten op de kaart.

Ga met uw muis naar het station om de naam te zien.

Klik dan om waarnemingen en weersverwachtingen te zien.

kaart wijzigen: klik op de groene knoppen met een zwart kruis om in te zoomen, op de groene knop met een streepje om uit te zoomen of op de groene pijlen voor aangrenzende kaarten.


METAR-TAF: